Terminal Aerodrome Forecast
Issued by NWS

Home | Current Version | Previous Version | Text Only | Print | Product List | Glossary On
Versions: 1 2 3 4 5 6 7 8 9 10 11 12 13 14 15 16 17
915
FTUS46 KPDT 121301 AAA
TAFRDM
TAF AMD
KRDM 121301Z 1213/1312 17005KT P6SM SCT070
     FM121900 29008KT P6SM -RA OVC040
     FM130600 18003KT P6SM SCT040=

USA.gov is the U.S. government's official web portal to all federal, state and local government web resources and services.